Time;durP1;ratioP1;P1;durP2;ratioP2;P2;SDS_P1;SDS_P2;PMS_P1;PMS_P2;Temp;Humidity;BMP_temperature;BMP_pressure;BME280_temperature;BME280_humidity;BME280_pressure;Samples;Min_cycle;Max_cycle;Signal;HPM_P1;HPM_P2
2022/03/26 00:02:40;;;;;;;29.43;19.03;;;;;;;5.78;61.74;95456.97;5022740;28;20190;-65
2022/03/26 00:05:26;;;;;;;28.97;19.23;;;;;;;5.55;62.83;95456.94;5037678;28;20604;-66
2022/03/26 00:08:13;;;;;;;27.30;19.13;;;;;;;5.48;63.30;95454.34;5023434;28;20302;-66
2022/03/26 00:10:59;;;;;;;31.67;18.83;;;;;;;5.20;65.20;95441.22;5041554;28;20265;-66
2022/03/26 00:13:44;;;;;;;26.60;18.30;;;;;;;5.19;65.80;95447.84;5028132;28;20255;-65
2022/03/26 00:16:33;;;;;;;27.77;17.77;;;;;;;4.95;66.80;95449.69;5028569;28;20309;-66
2022/03/26 00:19:19;;;;;;;26.20;18.63;;;;;;;4.60;67.90;95443.97;5011966;28;20206;-65
2022/03/26 00:22:06;;;;;;;30.83;19.40;;;;;;;4.61;68.45;95448.22;5027500;28;20194;-65
2022/03/26 00:24:52;;;;;;;26.20;18.83;;;;;;;4.75;68.61;95451.50;5021012;28;20279;-65
2022/03/26 00:27:37;;;;;;;29.67;19.83;;;;;;;4.89;68.47;95445.13;5043480;28;20214;-61
2022/03/26 00:30:23;;;;;;;33.37;18.70;;;;;;;4.74;68.95;95436.44;5031250;28;20210;-65
2022/03/26 00:33:09;;;;;;;29.00;19.67;;;;;;;4.53;71.04;95446.78;5030398;28;20662;-65
2022/03/26 00:35:56;;;;;;;29.80;19.03;;;;;;;4.44;71.08;95446.50;5031415;28;20674;-65
2022/03/26 00:38:42;;;;;;;29.67;19.20;;;;;;;4.39;71.91;95445.00;5017711;28;20199;-65
2022/03/26 00:41:31;;;;;;;26.70;19.17;;;;;;;4.22;71.08;95443.25;5033962;28;20279;-62
2022/03/26 00:44:17;;;;;;;29.13;19.87;;;;;;;4.37;71.39;95449.28;5031726;28;20290;-62
2022/03/26 00:47:04;;;;;;;30.00;19.90;;;;;;;4.21;71.26;95452.53;5042947;28;20666;-66
2022/03/26 00:49:51;;;;;;;30.43;19.67;;;;;;;4.17;72.54;95451.03;5027572;28;20210;-65
2022/03/26 00:52:37;;;;;;;39.57;20.77;;;;;;;4.13;73.84;95444.91;5030996;28;20749;-65
2022/03/26 00:55:24;;;;;;;29.93;20.00;;;;;;;4.14;73.81;95449.16;5029521;28;20560;-65
2022/03/26 00:58:10;;;;;;;31.53;20.00;;;;;;;4.04;74.47;95450.03;5017673;28;20238;-65
2022/03/26 01:00:56;;;;;;;27.70;19.77;;;;;;;3.93;74.39;95449.34;5041330;28;20206;-62
2022/03/26 01:03:41;;;;;;;28.87;18.83;;;;;;;3.85;74.08;95451.38;5038713;28;20638;-62
2022/03/26 01:06:27;;;;;;;32.50;20.87;;;;;;;3.80;75.65;95453.72;5031583;28;20205;-65
2022/03/26 01:09:13;;;;;;;34.77;20.63;;;;;;;3.67;77.66;95451.50;5035639;28;20346;-65
2022/03/26 01:11:59;;;;;;;37.97;20.43;;;;;;;3.98;77.00;95441.56;5042547;28;20202;-66
2022/03/26 01:14:45;;;;;;;31.33;21.07;;;;;;;3.81;76.59;95449.84;5035258;28;20191;-65
2022/03/26 01:17:32;;;;;;;28.77;20.17;;;;;;;3.67;77.16;95435.31;5046107;28;20714;-66
2022/03/26 01:20:18;;;;;;;32.50;20.63;;;;;;;3.46;78.24;95440.13;5044307;28;20633;-65
2022/03/26 01:23:03;;;;;;;43.97;19.93;;;;;;;3.36;79.15;95444.44;5032804;28;20199;-65
2022/03/26 01:25:49;;;;;;;32.87;21.43;;;;;;;3.35;78.31;95442.91;5023428;28;20232;-65
2022/03/26 01:28:35;;;;;;;30.73;20.00;;;;;;;3.34;78.24;95440.59;5032260;28;20234;-65
2022/03/26 01:31:22;;;;;;;29.47;19.37;;;;;;;3.41;78.61;95441.31;5031267;28;20280;-65
2022/03/26 01:34:08;;;;;;;27.90;18.43;;;;;;;3.23;79.57;95442.59;5042417;28;20270;-66
2022/03/26 01:36:54;;;;;;;35.57;19.57;;;;;;;3.32;78.54;95445.63;5029385;28;20223;-65
2022/03/26 01:39:40;;;;;;;28.13;19.17;;;;;;;3.38;78.44;95446.72;5033650;28;20730;-65
2022/03/26 01:42:26;;;;;;;36.77;20.23;;;;;;;3.89;76.14;95449.38;5027881;28;20291;-65
2022/03/26 01:45:12;;;;;;;34.07;20.50;;;;;;;4.53;72.66;95439.41;5020756;28;20278;-65
2022/03/26 01:47:59;;;;;;;33.13;20.07;;;;;;;4.77;70.19;95446.44;5030882;28;20207;-65
2022/03/26 01:50:45;;;;;;;32.77;19.67;;;;;;;4.68;69.99;95443.47;5048878;28;20233;-65
2022/03/26 01:53:31;;;;;;;34.23;21.07;;;;;;;4.93;69.28;95445.88;5033885;28;20191;-65
2022/03/26 01:56:18;;;;;;;40.60;21.10;;;;;;;5.21;67.59;95439.28;4989856;28;20201;-65
2022/03/26 01:59:06;;;;;;;39.53;20.97;;;;;;;5.37;66.67;95447.56;5017175;28;20876;-65
2022/03/26 02:01:53;;;;;;;36.27;21.60;;;;;;;5.39;66.37;95453.34;5032154;28;20210;-66
2022/03/26 02:04:43;;;;;;;36.27;21.90;;;;;;;5.17;66.85;95452.09;5014630;28;20510;-65
2022/03/26 02:07:29;;;;;;;30.83;21.10;;;;;;;5.15;67.63;95459.88;5009824;28;20216;-65
2022/03/26 02:10:17;;;;;;;33.77;21.50;;;;;;;5.14;67.32;95444.81;5010732;28;20206;-66
2022/03/26 02:13:03;;;;;;;32.90;21.23;;;;;;;4.95;67.76;95446.22;5029121;28;20202;-65
2022/03/26 02:15:49;;;;;;;33.97;20.93;;;;;;;4.40;69.79;95451.94;5004130;28;20193;-65
2022/03/26 02:18:35;;;;;;;30.53;21.03;;;;;;;4.52;71.03;95450.63;5001008;28;20222;-65
2022/03/26 02:21:22;;;;;;;35.60;22.40;;;;;;;4.62;70.40;95460.56;5017689;28;20290;-65
2022/03/26 02:24:08;;;;;;;30.77;20.67;;;;;;;4.57;71.77;95455.59;5024407;28;20766;-65
2022/03/26 02:26:55;;;;;;;29.57;19.43;;;;;;;4.34;71.79;95456.25;5025860;28;20206;-65
2022/03/26 02:29:41;;;;;;;26.97;18.97;;;;;;;3.97;73.07;95450.84;5045866;28;20225;-65
2022/03/26 02:32:28;;;;;;;27.27;19.40;;;;;;;4.01;74.67;95451.59;5035001;28;20244;-65
2022/03/26 02:35:14;;;;;;;25.83;18.83;;;;;;;3.72;75.49;95459.19;5050486;28;20517;-66
2022/03/26 02:38:00;;;;;;;32.90;20.93;;;;;;;3.71;75.47;95443.38;5019030;28;20218;-65
2022/03/26 02:40:46;;;;;;;28.93;20.40;;;;;;;3.44;76.72;95454.03;5037451;28;20198;-65
2022/03/26 02:43:32;;;;;;;29.87;18.90;;;;;;;3.17;77.93;95450.34;5020531;28;20252;-65
2022/03/26 02:46:18;;;;;;;29.10;20.50;;;;;;;3.30;79.27;95448.72;5037873;28;20195;-65
2022/03/26 02:49:04;;;;;;;30.77;20.93;;;;;;;3.43;77.68;95444.38;5028727;28;20564;-65
2022/03/26 02:51:50;;;;;;;36.33;21.77;;;;;;;3.39;79.31;95451.72;5029211;28;20356;-65
2022/03/26 02:54:36;;;;;;;32.53;20.83;;;;;;;3.00;82.63;95453.94;5036581;28;20203;-62
2022/03/26 02:57:22;;;;;;;33.07;21.03;;;;;;;2.88;82.48;95459.03;5033583;28;20689;-62
2022/03/26 03:00:09;;;;;;;30.50;20.23;;;;;;;3.09;82.16;95443.47;5032278;28;20575;-60
2022/03/26 03:02:55;;;;;;;29.43;20.13;;;;;;;3.09;80.49;95448.88;5032542;28;20284;-66
2022/03/26 03:05:42;;;;;;;29.33;19.73;;;;;;;2.95;81.75;95459.00;5024032;28;20202;-66
2022/03/26 03:08:27;;;;;;;29.30;20.13;;;;;;;2.91;83.58;95455.53;5039914;28;20691;-66
2022/03/26 03:11:13;;;;;;;36.13;20.27;;;;;;;2.72;84.73;95453.31;5040987;28;20228;-65
2022/03/26 03:14:00;;;;;;;30.57;20.37;;;;;;;2.85;84.03;95463.25;5034792;28;20312;-66
2022/03/26 03:16:46;;;;;;;30.33;20.33;;;;;;;2.59;84.35;95471.88;5030409;28;20218;-65
2022/03/26 03:19:32;;;;;;;34.50;22.77;;;;;;;2.62;85.66;95481.09;5027660;28;20651;-65
2022/03/26 03:22:18;;;;;;;34.47;22.67;;;;;;;3.01;85.79;95477.06;5015234;28;20340;-66
2022/03/26 03:25:05;;;;;;;40.53;24.90;;;;;;;3.43;83.02;95470.59;5036283;28;20675;-66
2022/03/26 03:27:51;;;;;;;31.80;22.30;;;;;;;3.61;80.59;95458.50;5028849;28;20215;-65
2022/03/26 03:30:37;;;;;;;37.37;23.20;;;;;;;3.47;81.37;95465.94;5039517;28;20568;-65
2022/03/26 03:33:23;;;;;;;36.07;22.77;;;;;;;3.46;81.27;95469.81;5032749;28;20283;-62
2022/03/26 03:36:09;;;;;;;31.40;21.23;;;;;;;3.26;81.63;95469.56;5034402;28;20206;-61
2022/03/26 03:38:55;;;;;;;34.60;21.87;;;;;;;3.18;82.35;95475.41;5033094;28;20186;-62
2022/03/26 03:41:41;;;;;;;41.60;24.23;;;;;;;3.06;82.80;95471.25;5046330;28;20199;-62
2022/03/26 03:44:27;;;;;;;37.20;24.17;;;;;;;3.24;82.46;95474.59;5028852;28;21661;-65
2022/03/26 03:47:13;;;;;;;45.40;24.20;;;;;;;3.47;81.03;95469.44;5014293;28;20207;-65
2022/03/26 03:49:59;;;;;;;39.03;22.90;;;;;;;3.69;79.34;95470.78;5031699;28;20568;-65
2022/03/26 03:52:45;;;;;;;38.63;23.27;;;;;;;3.82;78.53;95473.75;5047928;28;20194;-66
2022/03/26 03:55:31;;;;;;;37.73;22.90;;;;;;;3.92;77.55;95475.59;5010042;28;20198;-62
2022/03/26 03:58:17;;;;;;;37.13;23.27;;;;;;;3.97;76.93;95464.34;5035292;28;20678;-62
2022/03/26 04:01:04;;;;;;;39.93;23.43;;;;;;;4.05;76.34;95470.47;5036253;28;20195;-62
2022/03/26 04:03:49;;;;;;;37.47;24.63;;;;;;;4.07;75.92;95482.41;5028061;28;20676;-62
2022/03/26 04:06:36;;;;;;;42.27;23.80;;;;;;;4.10;76.00;95480.84;5011098;28;20308;-62
2022/03/26 04:09:22;;;;;;;38.37;24.20;;;;;;;4.09;75.53;95476.63;5041134;28;20201;-62
2022/03/26 04:12:09;;;;;;;37.73;22.93;;;;;;;4.19;75.57;95475.75;5042590;28;20194;-62
2022/03/26 04:14:55;;;;;;;37.27;23.23;;;;;;;4.16;74.91;95474.59;5045664;28;20205;-62
2022/03/26 04:17:41;;;;;;;34.20;22.57;;;;;;;3.97;75.77;95477.13;5037600;28;20302;-65
2022/03/26 04:20:27;;;;;;;30.77;21.23;;;;;;;3.60;76.80;95475.88;5021178;28;20214;-66
2022/03/26 04:23:12;;;;;;;33.93;21.90;;;;;;;3.31;79.30;95477.25;5040481;28;20269;-66
2022/03/26 04:25:59;;;;;;;30.23;21.27;;;;;;;3.11;81.45;95470.06;5034133;28;20194;-65
2022/03/26 04:28:45;;;;;;;31.10;21.13;;;;;;;3.03;82.34;95476.66;5025975;28;20207;-65
2022/03/26 04:31:32;;;;;;;37.33;23.13;;;;;;;3.00;81.99;95469.34;5014002;28;20548;-65
2022/03/26 04:34:19;;;;;;;36.87;22.57;;;;;;;2.93;82.86;95469.41;5028552;28;20187;-62
2022/03/26 04:37:07;;;;;;;38.57;25.23;;;;;;;2.98;83.11;95468.97;5034173;28;20218;-65
2022/03/26 04:39:54;;;;;;;32.00;21.07;;;;;;;2.81;82.72;95469.84;5033967;28;20238;-66
2022/03/26 04:42:41;;;;;;;30.97;20.67;;;;;;;2.37;85.68;95467.72;5045059;28;20202;-63
2022/03/26 04:45:30;;;;;;;31.63;21.33;;;;;;;2.38;88.24;95464.63;4984682;28;20199;-62
2022/03/26 04:48:15;;;;;;;32.93;22.33;;;;;;;2.30;88.01;95463.13;5024121;28;20250;-62
2022/03/26 04:51:02;;;;;;;36.10;22.90;;;;;;;1.96;89.71;95463.97;5032670;28;20217;-62
2022/03/26 04:53:47;;;;;;;33.70;23.03;;;;;;;1.72;93.02;95467.47;5014001;28;20291;-62
2022/03/26 04:56:34;;;;;;;39.67;23.40;;;;;;;1.80;92.55;95466.34;5019673;28;20237;-62
2022/03/26 04:59:20;;;;;;;40.63;23.63;;;;;;;1.66;92.57;95460.97;5040427;28;20255;-65
2022/03/26 05:02:06;;;;;;;38.17;24.00;;;;;;;1.74;94.02;95467.88;5038037;28;20203;-66
2022/03/26 05:04:52;;;;;;;30.90;22.00;;;;;;;1.95;92.94;95470.53;5049776;28;20674;-65
2022/03/26 05:07:45;;;;;;;33.07;22.37;;;;;;;1.85;93.91;95477.47;5047864;28;20214;-65
2022/03/26 05:10:31;;;;;;;35.90;21.77;;;;;;;1.82;93.71;95475.56;5038993;28;20199;-65
2022/03/26 05:13:17;;;;;;;35.73;23.53;;;;;;;1.87;93.76;95475.16;5033461;28;20278;-65
2022/03/26 05:16:03;;;;;;;38.53;24.87;;;;;;;2.02;93.48;95479.34;5042045;28;20205;-64
2022/03/26 05:18:49;;;;;;;35.40;23.83;;;;;;;2.02;93.15;95486.69;5042029;28;20527;-65
2022/03/26 05:21:37;;;;;;;36.10;22.73;;;;;;;2.08;92.40;95487.81;5035906;28;20298;-65
2022/03/26 05:24:23;;;;;;;34.97;21.93;;;;;;;2.06;91.80;95488.22;5036294;28;20206;-65
2022/03/26 05:27:10;;;;;;;34.07;22.27;;;;;;;1.68;93.55;95486.31;5041517;28;20261;-66
2022/03/26 05:29:56;;;;;;;32.00;22.57;;;;;;;1.98;93.84;95486.69;5032666;28;20198;-65
2022/03/26 05:32:43;;;;;;;29.93;22.00;;;;;;;1.69;93.65;95490.56;5025436;28;21035;-66
2022/03/26 05:35:29;;;;;;;34.27;22.17;;;;;;;1.54;94.14;95488.25;5032820;28;20397;-65
2022/03/26 05:38:15;;;;;;;36.13;23.43;;;;;;;1.24;97.79;95489.41;5029128;28;20329;-62
2022/03/26 05:41:01;;;;;;;33.87;22.97;;;;;;;1.31;99.00;95493.25;5047687;28;20349;-62
2022/03/26 05:43:48;;;;;;;36.23;22.77;;;;;;;1.07;99.82;95492.81;5036076;28;20276;-62
2022/03/26 05:46:34;;;;;;;37.90;24.37;;;;;;;1.51;100.00;95489.03;5037086;28;20582;-66
2022/03/26 05:49:21;;;;;;;35.00;22.37;;;;;;;1.58;98.32;95494.44;5040253;28;20206;-65
2022/03/26 05:52:08;;;;;;;34.23;22.60;;;;;;;1.36;98.21;95498.25;5030953;28;20206;-66
2022/03/26 05:54:54;;;;;;;39.20;24.50;;;;;;;1.53;98.18;95500.19;5036244;28;20286;-66
2022/03/26 05:57:40;;;;;;;38.63;22.67;;;;;;;1.82;97.58;95515.94;5027043;28;20233;-65
2022/03/26 06:00:26;;;;;;;38.57;22.97;;;;;;;2.10;96.20;95507.84;5035135;28;20246;-66
2022/03/26 06:03:12;;;;;;;35.10;23.03;;;;;;;2.40;93.74;95518.94;5030278;28;20216;-65
2022/03/26 06:05:58;;;;;;;39.57;24.47;;;;;;;2.41;92.48;95520.44;5025486;28;20281;-65
2022/03/26 06:08:44;;;;;;;40.17;22.63;;;;;;;2.45;93.70;95517.75;5038200;28;20797;-65
2022/03/26 06:11:30;;;;;;;37.37;22.93;;;;;;;2.30;92.34;95506.25;5036171;28;20202;-65
2022/03/26 06:14:17;;;;;;;34.87;23.43;;;;;;;2.61;92.03;95525.41;5029262;28;20226;-65
2022/03/26 06:17:04;;;;;;;40.70;23.83;;;;;;;2.72;91.62;95528.81;5034885;28;20671;-66
2022/03/26 06:19:50;;;;;;;36.33;22.10;;;;;;;2.79;92.39;95526.88;5048308;28;20573;-66
2022/03/26 06:22:36;;;;;;;35.50;23.83;;;;;;;2.92;89.27;95519.13;5048824;28;20194;-65
2022/03/26 06:25:22;;;;;;;37.83;23.83;;;;;;;3.08;90.15;95524.81;5038687;28;20982;-66
2022/03/26 06:28:08;;;;;;;34.67;23.17;;;;;;;3.32;88.88;95516.59;5027863;28;20249;-62
2022/03/26 06:30:54;;;;;;;43.43;24.10;;;;;;;3.39;88.90;95519.22;4997188;28;20210;-62
2022/03/26 06:33:39;;;;;;;41.03;26.13;;;;;;;3.60;88.51;95521.78;5049014;28;20581;-62
2022/03/26 06:36:26;;;;;;;41.47;26.27;;;;;;;3.56;88.27;95523.72;5034953;28;20199;-62
2022/03/26 06:39:12;;;;;;;51.13;28.30;;;;;;;3.77;87.96;95527.47;5034755;28;20696;-62
2022/03/26 06:41:58;;;;;;;39.03;23.67;;;;;;;3.83;84.99;95525.88;5020296;28;20279;-65
2022/03/26 06:44:44;;;;;;;35.57;24.20;;;;;;;4.17;82.16;95529.44;5040673;28;20202;-65
2022/03/26 06:47:31;;;;;;;39.50;25.77;;;;;;;4.53;80.09;95531.38;5037298;28;20366;-65
2022/03/26 06:50:17;;;;;;;38.53;24.03;;;;;;;5.04;76.62;95529.66;5016294;28;20203;-65
2022/03/26 06:53:03;;;;;;;34.70;23.57;;;;;;;5.42;73.30;95529.13;5044721;28;20194;-65
2022/03/26 06:55:49;;;;;;;36.43;23.13;;;;;;;5.82;70.41;95527.38;5019415;28;20206;-65
2022/03/26 06:58:35;;;;;;;45.60;24.67;;;;;;;5.95;69.00;95529.13;5032737;28;20223;-65
2022/03/26 07:01:21;;;;;;;38.77;25.50;;;;;;;6.10;68.24;95540.50;5029660;28;20901;-66
2022/03/26 07:04:17;;;;;;;35.07;23.40;;;;;;;6.37;66.49;95541.19;5029060;28;20200;-65
2022/03/26 07:07:03;;;;;;;37.43;23.60;;;;;;;6.70;64.99;95529.34;5033605;28;20676;-66
2022/03/26 07:09:49;;;;;;;34.33;22.17;;;;;;;6.73;64.85;95538.63;5040529;28;20190;-66
2022/03/26 07:12:35;;;;;;;35.77;23.00;;;;;;;6.72;64.78;95540.56;5035331;28;20204;-65
2022/03/26 07:15:26;;;;;;;35.43;24.13;;;;;;;6.83;64.34;95541.13;5033086;28;21137;-65
2022/03/26 07:18:12;;;;;;;32.47;21.40;;;;;;;6.92;63.80;95540.56;5032135;28;20559;-66
2022/03/26 07:21:00;;;;;;;38.40;23.03;;;;;;;7.02;64.64;95548.53;5020069;28;20226;-65
2022/03/26 07:23:46;;;;;;;33.27;22.20;;;;;;;6.97;64.03;95548.22;5035827;28;20896;-63
2022/03/26 07:26:32;;;;;;;31.67;21.60;;;;;;;7.13;63.28;95549.06;5037132;28;20201;-62
2022/03/26 07:29:18;;;;;;;32.60;22.90;;;;;;;7.17;62.75;95552.47;5035132;28;20203;-62
2022/03/26 07:32:11;;;;;;;36.60;21.97;;;;;;;7.33;63.04;95562.63;5037361;28;20198;-63
2022/03/26 07:34:57;;;;;;;35.70;23.37;;;;;;;7.50;63.99;95564.19;5035609;28;20195;-62
2022/03/26 07:37:43;;;;;;;36.37;22.63;;;;;;;7.74;62.56;95562.91;5034683;28;20297;-63
2022/03/26 07:40:29;;;;;;;35.37;23.67;;;;;;;7.78;62.79;95565.53;5037105;28;20256;-63
2022/03/26 07:43:15;;;;;;;30.80;21.40;;;;;;;7.81;62.35;95557.28;5036970;28;20266;-63
2022/03/26 07:46:01;;;;;;;37.63;22.80;;;;;;;8.01;61.76;95552.56;5038025;28;20244;-63
2022/03/26 07:48:48;;;;;;;32.37;22.77;;;;;;;8.19;61.49;95555.63;5030641;28;20201;-66
2022/03/26 07:51:34;;;;;;;33.93;22.77;;;;;;;8.30;60.89;95556.16;5007021;28;20263;-66
2022/03/26 07:54:20;;;;;;;29.73;20.80;;;;;;;8.41;61.11;95556.69;5032376;28;20201;-66
2022/03/26 07:57:06;;;;;;;38.67;24.40;;;;;;;8.75;60.02;95560.88;5024187;28;20234;-66
2022/03/26 07:59:52;;;;;;;39.70;23.47;;;;;;;8.97;59.25;95559.09;5030677;28;20207;-65
2022/03/26 08:02:38;;;;;;;32.80;22.60;;;;;;;9.08;58.38;95556.88;5011789;28;20269;-65
2022/03/26 08:05:24;;;;;;;33.60;21.67;;;;;;;9.34;57.86;95558.44;5034060;28;20238;-65
2022/03/26 08:08:10;;;;;;;34.60;22.50;;;;;;;9.35;57.85;95560.75;5021917;28;20226;-66
2022/03/26 08:10:56;;;;;;;32.93;21.87;;;;;;;9.51;56.42;95559.91;5034867;28;20195;-66
2022/03/26 08:13:42;;;;;;;34.73;21.97;;;;;;;9.84;56.14;95560.50;5015825;28;20247;-65
2022/03/26 08:16:27;;;;;;;33.13;22.63;;;;;;;10.03;54.74;95567.69;5039399;28;20236;-63
2022/03/26 08:19:13;;;;;;;33.90;22.17;;;;;;;10.00;54.68;95571.28;5034441;28;20178;-63
2022/03/26 08:21:59;;;;;;;33.43;22.63;;;;;;;10.28;54.89;95560.28;5033657;28;20234;-66
2022/03/26 08:24:45;;;;;;;34.07;22.57;;;;;;;10.45;53.09;95563.66;5029417;28;20194;-66
2022/03/26 08:27:31;;;;;;;31.80;22.13;;;;;;;10.41;53.54;95565.72;5020111;28;21798;-68
2022/03/26 08:30:19;;;;;;;37.63;22.67;;;;;;;10.67;53.12;95567.19;5041431;28;20946;-69
2022/03/26 08:33:06;;;;;;;32.20;21.07;;;;;;;11.26;55.32;95572.56;5011810;28;20202;-69
2022/03/26 08:35:52;;;;;;;34.83;21.50;;;;;;;11.40;50.39;95557.59;5018485;28;20186;-69
2022/03/26 08:38:39;;;;;;;34.03;20.90;;;;;;;11.54;50.03;95559.81;5048550;28;20221;-67
2022/03/26 08:41:26;;;;;;;32.10;20.20;;;;;;;11.50;50.64;95565.44;5029133;28;20194;-65
2022/03/26 08:44:12;;;;;;;30.97;20.37;;;;;;;12.02;49.47;95575.59;5038393;28;20198;-65
2022/03/26 08:47:02;;;;;;;30.47;19.83;;;;;;;12.13;49.57;95576.69;5038697;28;20699;-69
2022/03/26 08:49:48;;;;;;;26.47;19.47;;;;;;;12.07;48.99;95575.00;5030213;28;20287;-69
2022/03/26 08:52:34;;;;;;;26.83;18.33;;;;;;;11.92;48.33;95568.56;5023815;28;20191;-69
2022/03/26 08:55:20;;;;;;;31.27;20.37;;;;;;;12.23;47.62;95576.75;5018353;28;20664;-68
2022/03/26 08:58:09;;;;;;;28.93;20.83;;;;;;;12.12;46.91;95574.41;5037323;28;20249;-69
2022/03/26 09:00:54;;;;;;;29.67;19.47;;;;;;;12.13;47.71;95573.97;5032408;28;20234;-69
2022/03/26 09:03:43;;;;;;;28.17;19.93;;;;;;;12.41;45.62;95574.06;5045757;28;20194;-69
2022/03/26 09:06:29;;;;;;;25.90;19.03;;;;;;;12.52;45.78;95569.69;5044409;28;20191;-68
2022/03/26 09:09:16;;;;;;;26.10;18.37;;;;;;;12.36;45.34;95582.88;5028293;28;20706;-65
2022/03/26 09:12:02;;;;;;;27.53;19.87;;;;;;;12.56;45.33;95572.25;5023116;28;20198;-64
2022/03/26 09:14:48;;;;;;;28.40;18.97;;;;;;;12.91;44.48;95571.56;5026629;28;20349;-65
2022/03/26 09:17:36;;;;;;;27.50;19.40;;;;;;;13.34;44.29;95568.56;5028028;28;20231;-64
2022/03/26 09:20:21;;;;;;;29.77;19.80;;;;;;;13.59;43.18;95563.94;5045811;28;20523;-67
2022/03/26 09:23:07;;;;;;;28.90;18.03;;;;;;;13.99;42.66;95565.22;5051648;28;20247;-68
2022/03/26 09:25:53;;;;;;;28.37;20.90;;;;;;;13.85;43.08;95556.84;5047052;28;20203;-68
2022/03/26 09:28:39;;;;;;;28.50;20.33;;;;;;;13.61;42.96;95556.03;5022305;28;20742;-69
2022/03/26 09:31:25;;;;;;;31.93;20.20;;;;;;;13.64;43.75;95558.63;5019683;28;20234;-67
2022/03/26 09:34:11;;;;;;;29.73;20.17;;;;;;;13.58;43.85;95554.19;5043000;28;20221;-69
2022/03/26 09:36:57;;;;;;;30.73;21.20;;;;;;;13.99;42.85;95558.97;5047339;28;20230;-65
2022/03/26 09:39:43;;;;;;;26.30;19.80;;;;;;;13.73;42.77;95555.09;5043373;28;20221;-68
2022/03/26 09:42:29;;;;;;;30.00;20.30;;;;;;;14.19;42.27;95570.94;5032930;28;20249;-67
2022/03/26 09:45:16;;;;;;;29.63;20.67;;;;;;;14.22;42.08;95558.28;5045719;28;20201;-68
2022/03/26 09:48:04;;;;;;;27.40;20.60;;;;;;;14.27;41.66;95558.41;5034396;28;20734;-69
2022/03/26 09:50:53;;;;;;;28.67;20.17;;;;;;;14.34;40.93;95560.81;5004937;28;20214;-68
2022/03/26 09:53:41;;;;;;;32.60;20.23;;;;;;;14.39;40.95;95557.44;5018347;28;20241;-66
2022/03/26 09:56:29;;;;;;;31.20;19.97;;;;;;;14.30;40.69;95562.22;5041950;28;20210;-67
2022/03/26 09:59:22;;;;;;;27.00;19.53;;;;;;;14.47;40.43;95564.09;5022505;28;20199;-68
2022/03/26 10:02:08;;;;;;;33.90;21.13;;;;;;;14.51;39.25;95550.19;5009099;28;20199;-64
2022/03/26 10:04:54;;;;;;;28.73;20.73;;;;;;;14.80;39.42;95557.81;5023247;28;20273;-64
2022/03/26 10:07:40;;;;;;;31.07;20.40;;;;;;;14.94;38.90;95557.09;5008549;28;20565;-70
2022/03/26 10:10:27;;;;;;;29.23;19.83;;;;;;;15.07;39.61;95555.63;5033238;28;20670;-70
2022/03/26 10:13:36;;;;;;;32.93;21.57;;;;;;;14.47;38.67;95555.13;5035441;28;20197;-65
2022/03/26 10:16:23;;;;;;;27.10;19.77;;;;;;;14.93;39.34;95566.59;5024010;28;20757;-69
2022/03/26 10:19:09;;;;;;;32.07;20.90;;;;;;;14.90;38.29;95545.53;5029876;28;20191;-69
2022/03/26 10:21:54;;;;;;;32.37;23.07;;;;;;;15.03;37.30;95549.56;5003145;28;21662;-69
2022/03/26 10:24:43;;;;;;;31.97;21.67;;;;;;;15.11;37.89;95553.47;4999891;28;20206;-64
2022/03/26 10:27:38;;;;;;;28.53;20.57;;;;;;;15.43;37.30;95551.84;5028116;28;20218;-68
2022/03/26 10:33:32;;;;;;;31.07;22.37;;;;;;;15.16;36.98;95543.78;5034946;28;20194;-69
2022/03/26 10:36:20;;;;;;;29.63;21.33;;;;;;;15.43;35.95;95554.59;5030915;28;20285;-69
2022/03/26 10:39:14;;;;;;;27.07;20.87;;;;;;;15.73;36.71;95556.13;5046595;28;20245;-69
2022/03/26 10:42:00;;;;;;;31.23;23.10;;;;;;;15.67;37.76;95547.78;5022628;28;20286;-70
2022/03/26 10:44:47;;;;;;;30.97;23.27;;;;;;;15.57;36.99;95543.59;5008078;28;20547;-70
2022/03/26 10:47:37;;;;;;;31.10;23.23;;;;;;;15.40;37.61;95550.03;5027645;28;20275;-70
2022/03/26 10:50:25;;;;;;;36.17;23.17;;;;;;;15.64;37.04;95539.72;5038766;28;20206;-70
2022/03/26 10:53:14;;;;;;;31.07;23.33;;;;;;;15.73;37.33;95533.34;5029140;28;20213;-67
2022/03/26 10:56:03;;;;;;;33.47;24.17;;;;;;;15.44;36.01;95540.34;5022227;28;20206;-68
2022/03/26 10:58:49;;;;;;;37.07;23.77;;;;;;;15.25;36.96;95535.47;5038398;28;20234;-66
2022/03/26 11:01:35;;;;;;;34.43;22.80;;;;;;;15.52;35.74;95538.00;5045007;28;20194;-67
2022/03/26 11:04:21;;;;;;;36.00;25.07;;;;;;;15.57;36.46;95537.34;5025598;28;20209;-64
2022/03/26 11:07:11;;;;;;;38.87;23.67;;;;;;;15.54;36.81;95552.78;5020084;28;20230;-64
2022/03/26 11:09:58;;;;;;;33.13;23.50;;;;;;;15.88;36.92;95537.63;5034093;28;20203;-64
2022/03/26 11:12:46;;;;;;;33.27;23.57;;;;;;;15.82;36.04;95534.00;5036897;28;20190;-70
2022/03/26 11:15:39;;;;;;;34.40;23.80;;;;;;;15.67;35.80;95534.03;5031819;28;20202;-70
2022/03/26 11:18:50;;;;;;;32.93;23.87;;;;;;;15.92;35.92;95535.41;5031044;28;20704;-64
2022/03/26 11:21:49;;;;;;;33.60;23.17;;;;;;;16.14;35.87;95535.00;5030996;28;20198;-64
2022/03/26 11:24:41;;;;;;;32.00;22.77;;;;;;;16.02;35.38;95539.59;5032925;28;20224;-64
2022/03/26 11:27:45;;;;;;;30.77;22.23;;;;;;;16.15;36.66;95526.28;5047791;28;20242;-64
2022/03/26 11:30:49;;;;;;;36.93;23.43;;;;;;;16.14;35.15;95522.00;5045249;28;20202;-64
2022/03/26 11:33:37;;;;;;;32.07;22.03;;;;;;;16.09;35.18;95527.41;5027197;28;20671;-64
2022/03/26 11:36:27;;;;;;;30.47;22.77;;;;;;;16.11;34.53;95520.19;4996301;28;20203;-69
2022/03/26 11:39:15;;;;;;;34.50;22.93;;;;;;;16.19;34.43;95521.31;5036426;28;20206;-68
2022/03/26 11:42:06;;;;;;;31.07;21.63;;;;;;;16.45;33.82;95511.19;5019045;28;20625;-69
2022/03/26 11:51:19;;;;;;;30.67;23.23;;;;;;;16.57;34.29;95504.59;5027304;28;20187;-64
2022/03/26 11:54:13;;;;;;;34.07;22.17;;;;;;;16.30;33.69;95499.44;5042621;28;20194;-64
2022/03/26 11:57:14;;;;;;;26.30;19.87;;;;;;;16.13;33.67;95487.41;5047384;28;20301;-64
2022/03/26 12:00:00;;;;;;;28.63;20.03;;;;;;;16.29;32.52;95502.69;5045877;28;20259;-64
2022/03/26 12:02:51;;;;;;;24.97;19.43;;;;;;;16.44;32.74;95490.34;5031642;28;20217;-63
2022/03/26 12:08:56;;;;;;;27.83;20.77;;;;;;;16.78;32.29;95475.75;5033262;28;20235;-64
2022/03/26 12:12:16;;;;;;;34.90;19.87;;;;;;;16.82;31.00;95481.09;5038637;28;20294;-64
2022/03/26 12:15:08;;;;;;;23.77;18.53;;;;;;;16.96;31.34;95473.97;5031104;28;20230;-64
2022/03/26 12:18:14;;;;;;;24.07;17.90;;;;;;;17.00;30.83;95466.25;5012273;28;20285;-63
2022/03/26 12:21:19;;;;;;;31.07;18.53;;;;;;;17.34;31.38;95468.09;5019425;28;20225;-69
2022/03/26 12:24:16;;;;;;;24.93;18.10;;;;;;;17.01;30.15;95470.50;5040250;28;20553;-69
2022/03/26 12:27:05;;;;;;;23.20;15.33;;;;;;;17.20;32.24;95466.97;5013450;28;20222;-69
2022/03/26 12:29:56;;;;;;;28.93;19.13;;;;;;;16.83;31.02;95461.28;5027570;28;20274;-69
2022/03/26 12:32:42;;;;;;;25.63;19.60;;;;;;;17.06;31.14;95458.75;5031059;28;20271;-69
2022/03/26 12:35:28;;;;;;;24.50;17.77;;;;;;;17.10;30.21;95464.84;5031498;28;20203;-66
2022/03/26 12:38:16;;;;;;;26.13;19.00;;;;;;;16.65;30.09;95456.06;5015000;28;20234;-69
2022/03/26 12:41:06;;;;;;;24.13;18.47;;;;;;;16.71;29.91;95459.63;5034160;28;20212;-69
2022/03/26 12:43:57;;;;;;;26.60;18.30;;;;;;;16.81;29.78;95450.00;5023619;28;20201;-71
2022/03/26 12:46:45;;;;;;;23.80;17.03;;;;;;;16.96;29.86;95451.88;5038977;28;20214;-71
2022/03/26 12:49:35;;;;;;;22.83;17.90;;;;;;;16.96;29.92;95444.38;5019180;28;20226;-71
2022/03/26 12:52:23;;;;;;;28.23;20.00;;;;;;;17.01;31.07;95440.16;5036853;28;20664;-66
2022/03/26 12:55:09;;;;;;;23.33;18.77;;;;;;;16.94;29.76;95444.09;5036917;28;20225;-71
2022/03/26 13:01:11;;;;;;;26.77;17.97;;;;;;;17.13;30.89;95436.25;5036019;28;20205;-64
2022/03/26 13:03:57;;;;;;;24.47;17.80;;;;;;;17.54;30.33;95446.75;5012502;28;20325;-65
2022/03/26 13:06:42;;;;;;;24.83;16.90;;;;;;;17.16;29.32;95436.03;5032537;28;20217;-64
2022/03/26 13:09:32;;;;;;;24.03;18.90;;;;;;;17.15;29.95;95439.28;5024163;28;20202;-71
2022/03/26 13:12:28;;;;;;;28.23;19.90;;;;;;;16.93;30.30;95442.59;5043854;28;20765;-71